createdAt,value
2022-12-17T00:00:01.748Z,93812.81
2022-12-17T00:01:03.916Z,93818.81
2022-12-17T00:02:05.526Z,93822.00
2022-12-17T00:03:10.087Z,93820.03
2022-12-17T00:04:11.782Z,93823.00
2022-12-17T00:05:13.415Z,93823.38
2022-12-17T00:06:14.924Z,93823.09
2022-12-17T00:07:16.532Z,93825.84
2022-12-17T00:08:19.369Z,93824.47
2022-12-17T00:09:20.926Z,93817.94
2022-12-17T00:10:22.407Z,93818.81
2022-12-17T00:11:24.017Z,93822.22
2022-12-17T00:12:25.587Z,93819.19
2022-12-17T00:13:27.111Z,93826.53
2022-12-17T00:14:28.633Z,93824.03
2022-12-17T00:15:30.169Z,93826.44
2022-12-17T00:16:31.727Z,93826.53
2022-12-17T00:17:33.368Z,93832.47
2022-12-17T00:18:34.920Z,93828.88
2022-12-17T00:19:36.430Z,93821.53
2022-12-17T00:20:37.925Z,93825.00
2022-12-17T00:21:39.475Z,93818.03
2022-12-17T00:22:41.013Z,93827.50
2022-12-17T00:23:44.162Z,93825.94
2022-12-17T00:24:45.680Z,93831.47
2022-12-17T00:25:50.567Z,93832.28
2022-12-17T00:26:52.106Z,93828.91
2022-12-17T00:27:53.625Z,93830.44
2022-12-17T00:28:55.194Z,93830.25
2022-12-17T00:29:57.532Z,93827.22
2022-12-17T00:30:59.095Z,93834.16
2022-12-17T00:32:00.900Z,93831.25
2022-12-17T00:33:02.405Z,93832.06
2022-12-17T00:34:03.921Z,93832.81
2022-12-17T00:35:06.368Z,93834.75
2022-12-17T00:36:08.380Z,93835.63
2022-12-17T00:37:09.882Z,93837.53
2022-12-17T00:38:15.154Z,93834.16
2022-12-17T00:39:17.969Z,93837.00
2022-12-17T00:40:19.578Z,93838.25
2022-12-17T00:41:21.193Z,93834.41
2022-12-17T00:42:22.823Z,93835.56
2022-12-17T00:43:24.342Z,93835.84
2022-12-17T00:44:25.871Z,93838.31
2022-12-17T00:45:27.399Z,93833.44
2022-12-17T00:46:28.979Z,93836.59
2022-12-17T00:47:30.530Z,93838.13
2022-12-17T00:48:32.050Z,93847.16
2022-12-17T00:49:33.574Z,93845.59
2022-12-17T00:50:35.134Z,93844.47
2022-12-17T00:51:36.638Z,93845.53
2022-12-17T00:52:38.157Z,93847.44
2022-12-17T00:53:39.808Z,93842.22
2022-12-17T00:54:42.720Z,93854.69
2022-12-17T00:55:44.301Z,93849.13
2022-12-17T00:56:45.893Z,93847.81
2022-12-17T00:57:53.077Z,93848.28
2022-12-17T00:58:54.635Z,93850.78
2022-12-17T00:59:56.121Z,93856.56
2022-12-17T01:00:58.600Z,93848.56
2022-12-17T01:02:00.273Z,93858.94
2022-12-17T01:03:06.951Z,93856.28
2022-12-17T01:04:08.512Z,93858.47
2022-12-17T01:05:11.019Z,93856.66
2022-12-17T01:06:13.610Z,93866.78
2022-12-17T01:07:15.185Z,93859.53
2022-12-17T01:08:16.741Z,93858.09
2022-12-17T01:09:18.502Z,93860.09
2022-12-17T01:10:21.366Z,93860.13
2022-12-17T01:11:22.904Z,93862.84
2022-12-17T01:12:24.397Z,93870.13
2022-12-17T01:13:25.975Z,93863.13
2022-12-17T01:14:27.743Z,93875.03
2022-12-17T01:15:29.298Z,93874.63
2022-12-17T01:16:30.857Z,93871.41
2022-12-17T01:17:32.431Z,93875.97
2022-12-17T01:18:33.962Z,93882.13
2022-12-17T01:19:35.464Z,93887.19
2022-12-17T01:20:37.046Z,93888.28
2022-12-17T01:21:39.154Z,93882.91
2022-12-17T01:22:56.457Z,93891.25
2022-12-17T01:23:58.124Z,93889.75
2022-12-17T01:24:59.645Z,93895.69
2022-12-17T01:26:02.581Z,93891.78
2022-12-17T01:27:04.224Z,93895.06
2022-12-17T01:28:05.857Z,93898.13
2022-12-17T01:29:07.386Z,93895.81
2022-12-17T01:30:09.401Z,93896.91
2022-12-17T01:31:12.037Z,93893.59
2022-12-17T01:32:13.618Z,93903.75
2022-12-17T01:33:15.186Z,93900.66
2022-12-17T01:34:16.786Z,93905.63
2022-12-17T01:35:18.469Z,93905.31
2022-12-17T01:36:20.120Z,93903.22
2022-12-17T01:37:21.649Z,93905.50
2022-12-17T01:38:23.148Z,93902.41
2022-12-17T01:39:24.701Z,93910.66
2022-12-17T01:40:26.227Z,93906.06
2022-12-17T01:41:29.768Z,93908.59
2022-12-17T01:42:37.824Z,93904.50
2022-12-17T01:43:39.634Z,93905.09
2022-12-17T01:44:47.982Z,93901.53
2022-12-17T01:45:49.765Z,93909.41
2022-12-17T01:46:51.763Z,93903.81
2022-12-17T01:47:58.924Z,93904.19
2022-12-17T01:49:00.648Z,93911.97
2022-12-17T01:50:02.186Z,93914.28
2022-12-17T01:51:04.633Z,93909.22
2022-12-17T01:52:06.795Z,93906.19
2022-12-17T01:53:09.459Z,93912.25
2022-12-17T01:54:11.303Z,93907.56
2022-12-17T01:55:12.809Z,93913.44
2022-12-17T01:56:14.712Z,93912.97
2022-12-17T01:57:17.615Z,93918.50
2022-12-17T01:58:19.421Z,93912.72
2022-12-17T01:59:29.399Z,93915.13
2022-12-17T02:00:31.135Z,93919.38
2022-12-17T02:01:32.771Z,93920.06
2022-12-17T02:02:34.486Z,93915.94
2022-12-17T02:03:36.505Z,93914.66
2022-12-17T02:04:39.105Z,93920.78
2022-12-17T02:05:48.283Z,93916.19
2022-12-17T02:06:59.394Z,93922.38
2022-12-17T02:08:10.625Z,93925.13
2022-12-17T02:09:20.756Z,93925.94
2022-12-17T02:10:25.536Z,93914.03
2022-12-17T02:11:39.547Z,93918.19
2022-12-17T02:12:47.208Z,93921.09
2022-12-17T02:13:54.962Z,93921.25
2022-12-17T02:15:05.514Z,93931.59
2022-12-17T02:16:12.221Z,93930.75
2022-12-17T02:17:20.488Z,93926.56
2022-12-17T02:18:27.755Z,93925.81
2022-12-17T02:19:42.161Z,93919.03
2022-12-17T02:20:48.003Z,93931.75
2022-12-17T02:21:57.350Z,93932.06
2022-12-17T02:23:09.006Z,93936.38
2022-12-17T02:24:14.915Z,93933.16
2022-12-17T02:25:23.053Z,93938.28
2022-12-17T02:26:36.562Z,93935.13
2022-12-17T02:27:50.461Z,93938.88
2022-12-17T02:28:53.071Z,93934.47
2022-12-17T02:29:57.235Z,93938.44
2022-12-17T02:30:58.874Z,93934.78
2022-12-17T02:32:02.550Z,93931.91
2022-12-17T02:33:04.878Z,93932.72
2022-12-17T02:34:06.416Z,93931.91
2022-12-17T02:35:14.611Z,93928.44
2022-12-17T02:36:16.158Z,93936.34
2022-12-17T02:37:17.666Z,93933.47
2022-12-17T02:38:21.708Z,93935.22
2022-12-17T02:39:23.402Z,93939.19
2022-12-17T02:40:25.387Z,93935.56
2022-12-17T02:41:29.582Z,93945.97
2022-12-17T02:42:33.081Z,93940.84
2022-12-17T02:43:35.550Z,93944.41
2022-12-17T02:44:39.289Z,93939.03
2022-12-17T02:45:41.063Z,93945.66
2022-12-17T02:46:43.551Z,93944.22
2022-12-17T02:47:45.445Z,93945.88
2022-12-17T02:48:47.202Z,93944.22
2022-12-17T02:49:48.865Z,93941.66
2022-12-17T02:50:50.670Z,93941.84
2022-12-17T02:51:54.447Z,93955.66
2022-12-17T02:52:59.566Z,93944.34
2022-12-17T02:54:03.804Z,93936.63
2022-12-17T02:55:06.853Z,93944.06
2022-12-17T02:56:08.606Z,93935.72
2022-12-17T02:57:10.121Z,93936.47
2022-12-17T02:58:12.990Z,93940.03
2022-12-17T02:59:14.762Z,93942.59
2022-12-17T03:00:16.603Z,93940.34
2022-12-17T03:01:18.258Z,93946.56
2022-12-17T03:02:19.975Z,93942.50
2022-12-17T03:03:21.786Z,93945.75
2022-12-17T03:04:23.359Z,93945.22
2022-12-17T03:06:46.323Z,93950.84
2022-12-17T03:07:47.827Z,93952.56
2022-12-17T03:08:49.488Z,93952.72
2022-12-17T03:09:51.041Z,93959.34
2022-12-17T03:10:52.624Z,93952.72
2022-12-17T03:11:54.123Z,93957.84
2022-12-17T03:12:55.598Z,93951.25
2022-12-17T03:13:59.687Z,93956.03
2022-12-17T03:16:57.913Z,93949.00
2022-12-17T03:17:59.450Z,93960.06
2022-12-17T03:19:01.541Z,93966.13
2022-12-17T03:20:03.888Z,93972.59
2022-12-17T03:21:05.560Z,93968.44
2022-12-17T03:22:07.090Z,93969.88
2022-12-17T03:23:10.963Z,93963.66
2022-12-17T03:24:12.480Z,93965.06
2022-12-17T03:25:14.910Z,93968.28
2022-12-17T03:26:16.512Z,93970.28
2022-12-17T03:27:18.074Z,93966.63
2022-12-17T03:28:19.623Z,93966.72
2022-12-17T03:29:22.485Z,93969.13
2022-12-17T03:30:24.153Z,93968.97
2022-12-17T03:31:25.861Z,93979.22
2022-12-17T03:32:27.405Z,93970.97
2022-12-17T03:33:28.911Z,93972.19
2022-12-17T03:34:30.413Z,93983.66
2022-12-17T03:35:31.983Z,93978.22
2022-12-17T03:36:33.510Z,93983.03
2022-12-17T03:37:35.048Z,93982.13
2022-12-17T03:38:39.741Z,93983.84
2022-12-17T03:39:41.267Z,93987.81
2022-12-17T03:40:42.793Z,93983.28
2022-12-17T03:41:45.075Z,93989.06
2022-12-17T03:42:46.584Z,93985.59
2022-12-17T03:43:48.099Z,93982.84
2022-12-17T03:44:50.947Z,93985.09
2022-12-17T03:45:53.343Z,93987.16
2022-12-17T03:46:54.946Z,93989.72
2022-12-17T03:48:04.925Z,93986.41
2022-12-17T03:49:06.755Z,93989.91
2022-12-17T03:50:08.641Z,93988.09
2022-12-17T03:51:10.132Z,93984.59
2022-12-17T03:52:11.632Z,93985.34
2022-12-17T03:53:13.238Z,93983.53
2022-12-17T03:54:14.727Z,93989.72
2022-12-17T03:55:16.303Z,93981.13
2022-12-17T03:56:17.833Z,93984.94
2022-12-17T03:57:19.386Z,93989.88
2022-12-17T03:58:20.905Z,93982.94
2022-12-17T03:59:22.433Z,93981.97
2022-12-17T04:00:25.273Z,93986.09
2022-12-17T04:01:26.848Z,93982.63
2022-12-17T04:02:28.565Z,93977.19
2022-12-17T04:03:30.255Z,93985.34
2022-12-17T04:04:31.860Z,93975.75
2022-12-17T04:05:33.436Z,93984.00
2022-12-17T04:06:34.970Z,93987.94
2022-12-17T04:07:36.526Z,93976.31
2022-12-17T04:08:38.051Z,93994.78
2022-12-17T04:09:39.557Z,93982.78
2022-12-17T04:10:41.358Z,93985.69
2022-12-17T04:11:42.916Z,93991.38
2022-12-17T04:12:44.443Z,93993.94
2022-12-17T04:13:46.285Z,93990.81
2022-12-17T04:14:48.052Z,93985.59
2022-12-17T04:15:50.967Z,93998.38
2022-12-17T04:16:52.492Z,94000.22
2022-12-17T04:17:54.152Z,93997.00
2022-12-17T04:18:55.726Z,93997.31
2022-12-17T04:19:57.272Z,94000.22
2022-12-17T04:21:14.143Z,94009.13
2022-12-17T04:22:15.715Z,94009.53
2022-12-17T04:23:17.234Z,94010.00
2022-12-17T04:24:18.770Z,94014.59
2022-12-17T04:25:20.365Z,94009.50
2022-12-17T04:26:21.943Z,94023.00
2022-12-17T04:27:23.496Z,94024.88
2022-12-17T04:28:25.021Z,94022.00
2022-12-17T04:29:26.562Z,94028.84
2022-12-17T04:30:28.069Z,94029.41
2022-12-17T04:31:36.065Z,94030.41
2022-12-17T04:32:37.640Z,94033.25
2022-12-17T04:33:39.473Z,94034.81
2022-12-17T04:34:41.173Z,94037.09
2022-12-17T04:35:44.351Z,94042.78
2022-12-17T04:36:45.847Z,94042.56
2022-12-17T04:37:47.430Z,94041.28
2022-12-17T04:38:48.959Z,94044.66
2022-12-17T04:39:50.546Z,94038.44
2022-12-17T04:40:52.072Z,94039.31
2022-12-17T04:42:18.335Z,94036.72
2022-12-17T04:43:19.848Z,94047.44
2022-12-17T04:44:21.341Z,94042.50
2022-12-17T04:45:22.846Z,94051.25
2022-12-17T04:46:24.423Z,94050.47
2022-12-17T04:47:27.381Z,94048.16
2022-12-17T04:48:28.903Z,94050.47
2022-12-17T04:49:30.445Z,94056.84
2022-12-17T04:50:31.958Z,94056.28
2022-12-17T04:51:33.481Z,94058.00
2022-12-17T04:52:34.998Z,94062.59
2022-12-17T04:53:36.840Z,94059.28
2022-12-17T04:54:38.599Z,94063.44
2022-12-17T04:55:40.099Z,94068.53
2022-12-17T04:56:41.652Z,94069.78
2022-12-17T04:57:43.174Z,94070.38
2022-12-17T04:58:44.673Z,94064.00
2022-12-17T04:59:46.143Z,94068.78
2022-12-17T05:00:47.680Z,94073.97
2022-12-17T05:01:49.328Z,94070.34
2022-12-17T05:02:52.396Z,94075.19
2022-12-17T05:03:54.065Z,94076.66
2022-12-17T05:04:55.644Z,94077.19
2022-12-17T05:05:57.458Z,94078.03
2022-12-17T05:06:59.036Z,94081.06
2022-12-17T05:08:00.617Z,94083.00
2022-12-17T05:09:02.375Z,94090.50
2022-12-17T05:10:04.389Z,94086.19
2022-12-17T05:11:06.004Z,94090.97
2022-12-17T05:12:07.530Z,94093.38
2022-12-17T05:13:09.910Z,94092.63
2022-12-17T05:14:11.422Z,94091.13
2022-12-17T05:15:12.961Z,94096.75
2022-12-17T05:16:14.597Z,94102.44
2022-12-17T05:17:16.237Z,94101.06
2022-12-17T05:18:19.122Z,94098.09
2022-12-17T05:19:20.653Z,94104.19
2022-12-17T05:20:22.171Z,94101.91
2022-12-17T05:21:23.668Z,94102.16
2022-12-17T05:22:25.195Z,94105.56
2022-12-17T05:23:26.670Z,94106.72
2022-12-17T05:24:28.184Z,94104.09
2022-12-17T05:25:29.749Z,94110.25
2022-12-17T05:26:31.296Z,94115.09
2022-12-17T05:27:32.813Z,94110.13
2022-12-17T05:28:34.357Z,94112.47
2022-12-17T05:29:35.839Z,94113.84
2022-12-17T05:30:37.344Z,94117.50
2022-12-17T05:31:38.932Z,94113.06
2022-12-17T05:32:40.503Z,94113.28
2022-12-17T05:33:43.377Z,94113.69
2022-12-17T05:34:44.878Z,94108.72
2022-12-17T05:35:46.672Z,94109.63
2022-12-17T05:36:48.196Z,94114.31
2022-12-17T05:37:49.705Z,94114.91
2022-12-17T05:38:54.043Z,94116.91
2022-12-17T05:39:55.540Z,94115.56
2022-12-17T05:41:12.530Z,94118.53
2022-12-17T05:42:14.044Z,94115.50
2022-12-17T05:43:15.529Z,94120.00
2022-12-17T05:44:17.034Z,94113.16
2022-12-17T05:45:18.543Z,94120.56
2022-12-17T05:46:20.130Z,94115.84
2022-12-17T05:47:21.644Z,94116.19
2022-12-17T05:48:23.175Z,94122.16
2022-12-17T05:49:26.040Z,94119.72
2022-12-17T05:50:29.213Z,94120.63
2022-12-17T05:51:33.514Z,94117.34
2022-12-17T05:52:38.626Z,94123.97
2022-12-17T05:53:40.142Z,94126.97
2022-12-17T05:54:41.728Z,94123.97
2022-12-17T05:55:43.267Z,94124.00
2022-12-17T05:56:44.865Z,94125.28
2022-12-17T05:57:49.413Z,94122.31
2022-12-17T05:58:53.242Z,94126.63
2022-12-17T05:59:54.741Z,94126.59
2022-12-17T06:00:56.654Z,94130.53
2022-12-17T06:01:58.220Z,94131.38
2022-12-17T06:03:00.771Z,94128.69
2022-12-17T06:04:02.500Z,94138.03
2022-12-17T06:05:06.741Z,94131.88
2022-12-17T06:06:08.229Z,94135.34
2022-12-17T06:07:09.759Z,94141.84
2022-12-17T06:08:11.297Z,94138.50
2022-12-17T06:09:13.292Z,94132.66
2022-12-17T06:10:14.818Z,94132.44
2022-12-17T06:11:16.328Z,94138.09
2022-12-17T06:12:17.861Z,94135.63
2022-12-17T06:13:19.360Z,94137.13
2022-12-17T06:14:20.907Z,94134.50
2022-12-17T06:15:22.422Z,94142.13
2022-12-17T06:16:24.003Z,94143.97
2022-12-17T06:17:25.592Z,94143.16
2022-12-17T06:18:27.108Z,94139.75
2022-12-17T06:19:28.665Z,94150.47
2022-12-17T06:20:43.880Z,94146.69
2022-12-17T06:21:45.380Z,94148.75
2022-12-17T06:22:46.894Z,94149.03
2022-12-17T06:23:48.399Z,94147.25
2022-12-17T06:24:49.960Z,94143.34
2022-12-17T06:25:52.661Z,94147.50
2022-12-17T06:26:54.191Z,94149.09
2022-12-17T06:27:59.473Z,94144.31
2022-12-17T06:29:00.998Z,94146.69
2022-12-17T06:30:02.560Z,94148.03
2022-12-17T06:31:04.123Z,94148.63
2022-12-17T06:32:05.684Z,94159.38
2022-12-17T06:33:09.264Z,94152.31
2022-12-17T06:34:10.805Z,94157.56
2022-12-17T06:35:12.311Z,94155.84
2022-12-17T06:36:21.667Z,94157.91
2022-12-17T06:37:24.208Z,94149.03
2022-12-17T06:38:25.753Z,94153.16
2022-12-17T06:39:27.295Z,94155.44
2022-12-17T06:40:28.793Z,94151.91
2022-12-17T06:41:30.304Z,94157.91
2022-12-17T06:42:31.896Z,94152.66
2022-12-17T06:43:33.786Z,94156.75
2022-12-17T06:44:35.572Z,94154.94
2022-12-17T06:45:37.080Z,94159.69
2022-12-17T06:46:38.627Z,94160.72
2022-12-17T06:47:40.134Z,94161.56
2022-12-17T06:48:50.665Z,94165.56
2022-12-17T06:49:56.598Z,94158.59
2022-12-17T06:51:01.080Z,94174.16
2022-12-17T06:52:04.098Z,94170.03
2022-12-17T06:53:07.224Z,94172.56
2022-12-17T06:54:08.768Z,94177.22
2022-12-17T06:55:10.676Z,94174.03
2022-12-17T06:56:12.210Z,94176.25
2022-12-17T06:57:13.745Z,94176.34
2022-12-17T06:58:15.246Z,94168.31
2022-12-17T06:59:16.762Z,94177.16
2022-12-17T07:00:18.329Z,94180.34
2022-12-17T07:01:20.048Z,94181.22
2022-12-17T07:02:21.751Z,94179.06
2022-12-17T07:03:23.480Z,94184.28
2022-12-17T07:04:25.057Z,94190.91
2022-12-17T07:05:45.016Z,94183.75
2022-12-17T07:06:46.549Z,94182.78
2022-12-17T07:07:49.403Z,94188.00
2022-12-17T07:08:50.906Z,94195.75
2022-12-17T07:09:52.422Z,94179.56
2022-12-17T07:10:53.958Z,94181.28
2022-12-17T07:11:55.661Z,94188.41
2022-12-17T07:13:04.236Z,94192.59
2022-12-17T07:14:05.774Z,94190.56
2022-12-17T07:15:08.218Z,94191.97
2022-12-17T07:16:09.739Z,94196.50
2022-12-17T07:17:11.889Z,94198.06
2022-12-17T07:18:13.496Z,94193.81
2022-12-17T07:19:15.069Z,94198.69
2022-12-17T07:20:16.661Z,94200.84
2022-12-17T07:21:18.155Z,94195.69
2022-12-17T07:22:19.680Z,94192.81
2022-12-17T07:23:22.521Z,94200.16
2022-12-17T07:24:24.059Z,94194.75
2022-12-17T07:25:25.567Z,94202.69
2022-12-17T07:26:27.141Z,94207.69
2022-12-17T07:27:28.650Z,94203.09
2022-12-17T07:28:30.127Z,94210.56
2022-12-17T07:29:31.645Z,94211.59
2022-12-17T07:30:33.158Z,94205.72
2022-12-17T07:31:34.718Z,94210.63
2022-12-17T07:32:36.234Z,94208.34
2022-12-17T07:33:37.979Z,94206.47
2022-12-17T07:34:39.657Z,94211.78
2022-12-17T07:35:41.173Z,94209.41
2022-12-17T07:36:42.664Z,94212.88
2022-12-17T07:37:44.158Z,94214.53
2022-12-17T07:38:46.993Z,94212.75
2022-12-17T07:39:48.524Z,94221.84
2022-12-17T07:40:50.160Z,94217.44
2022-12-17T07:41:51.666Z,94215.00
2022-12-17T07:42:53.144Z,94213.13
2022-12-17T07:43:54.696Z,94217.34
2022-12-17T07:44:56.198Z,94218.75
2022-12-17T07:45:57.766Z,94215.50
2022-12-17T07:46:59.259Z,94215.44
2022-12-17T07:48:00.765Z,94213.88
2022-12-17T07:49:02.459Z,94216.88
2022-12-17T07:50:05.158Z,94215.00
2022-12-17T07:51:06.675Z,94221.19
2022-12-17T07:52:08.188Z,94219.47
2022-12-17T07:53:09.714Z,94227.63
2022-12-17T07:54:13.038Z,94231.09
2022-12-17T07:55:18.195Z,94228.41
2022-12-17T07:56:20.226Z,94233.94
2022-12-17T07:57:21.729Z,94233.84
2022-12-17T07:58:24.351Z,94238.72
2022-12-17T07:59:25.874Z,94235.06
2022-12-17T08:00:27.410Z,94240.88
2022-12-17T08:01:29.024Z,94242.31
2022-12-17T08:02:31.441Z,94248.16
2022-12-17T08:03:33.267Z,94235.38
2022-12-17T08:04:34.942Z,94243.47
2022-12-17T08:05:36.460Z,94243.19
2022-12-17T08:06:51.623Z,94241.81
2022-12-17T08:07:55.451Z,94241.38
2022-12-17T08:08:56.969Z,94245.00
2022-12-17T08:09:59.816Z,94252.31
2022-12-17T08:11:01.323Z,94255.38
2022-12-17T08:12:02.894Z,94251.16
2022-12-17T08:13:08.379Z,94256.00
2022-12-17T08:14:14.014Z,94261.75
2022-12-17T08:15:15.972Z,94262.84
2022-12-17T08:16:17.485Z,94260.97
2022-12-17T08:17:19.046Z,94258.56
2022-12-17T08:18:26.109Z,94262.50
2022-12-17T08:19:28.351Z,94260.84
2022-12-17T08:20:29.876Z,94264.72
2022-12-17T08:21:31.355Z,94266.41
2022-12-17T08:22:32.878Z,94269.97
2022-12-17T08:23:34.760Z,94272.06
2022-12-17T08:24:36.562Z,94269.38
2022-12-17T08:25:39.880Z,94278.88
2022-12-17T08:26:47.320Z,94279.75
2022-12-17T08:27:55.648Z,94283.91
2022-12-17T08:28:58.860Z,94283.16
2022-12-17T08:30:00.356Z,94291.59
2022-12-17T08:31:01.991Z,94291.22
2022-12-17T08:32:03.538Z,94294.00
2022-12-17T08:33:05.839Z,94295.44
2022-12-17T08:34:08.144Z,94296.19
2022-12-17T08:35:09.984Z,94296.06
2022-12-17T08:36:11.861Z,94300.69
2022-12-17T08:37:13.428Z,94296.84
2022-12-17T08:38:14.957Z,94295.41
2022-12-17T08:39:16.488Z,94293.75
2022-12-17T08:40:18.036Z,94294.06
2022-12-17T08:41:20.969Z,94292.31
2022-12-17T08:42:22.537Z,94297.97
2022-12-17T08:43:24.084Z,94291.19
2022-12-17T08:44:25.563Z,94294.44
2022-12-17T08:45:27.042Z,94291.78
2022-12-17T08:46:28.637Z,94293.22
2022-12-17T08:47:30.247Z,94300.22
2022-12-17T08:48:31.810Z,94295.31
2022-12-17T08:49:33.327Z,94300.34
2022-12-17T08:50:34.876Z,94299.81
2022-12-17T08:51:36.375Z,94298.59
2022-12-17T08:52:37.943Z,94302.94
2022-12-17T08:53:39.802Z,94292.25
2022-12-17T08:54:41.594Z,94287.28
2022-12-17T08:55:43.139Z,94293.84
2022-12-17T08:56:46.082Z,94299.59
2022-12-17T08:57:52.971Z,94298.28
2022-12-17T08:58:59.144Z,94296.09
2022-12-17T09:00:00.994Z,94301.91
2022-12-17T09:01:02.585Z,94297.91
2022-12-17T09:02:04.270Z,94313.25
2022-12-17T09:03:06.019Z,94312.91
2022-12-17T09:04:07.567Z,94307.31
2022-12-17T09:05:09.192Z,94317.41
2022-12-17T09:06:11.276Z,94315.59
2022-12-17T09:07:12.810Z,94314.72
2022-12-17T09:08:14.352Z,94311.19
2022-12-17T09:09:16.177Z,94318.69
2022-12-17T09:10:17.728Z,94308.84
2022-12-17T09:11:19.298Z,94307.03
2022-12-17T09:12:22.186Z,94314.00
2022-12-17T09:13:23.707Z,94315.97
2022-12-17T09:14:28.556Z,94310.47
2022-12-17T09:15:30.041Z,94308.44
2022-12-17T09:16:31.632Z,94313.72
2022-12-17T09:17:33.190Z,94314.84
2022-12-17T09:18:34.668Z,94313.53
2022-12-17T09:19:36.181Z,94304.66
2022-12-17T09:20:37.787Z,94311.78
2022-12-17T09:21:39.361Z,94309.28
2022-12-17T09:22:40.915Z,94309.66
2022-12-17T09:23:42.410Z,94309.50
2022-12-17T09:24:43.920Z,94314.94
2022-12-17T09:25:57.974Z,94321.03
2022-12-17T09:26:59.896Z,94322.16
2022-12-17T09:28:03.585Z,94313.22
2022-12-17T09:29:05.104Z,94324.91
2022-12-17T09:30:07.508Z,94325.22
2022-12-17T09:31:09.138Z,94327.63
2022-12-17T09:32:10.762Z,94337.03
2022-12-17T09:33:15.059Z,94338.44
2022-12-17T09:34:16.792Z,94331.88
2022-12-17T09:35:18.330Z,94340.09
2022-12-17T09:36:19.883Z,94335.13
2022-12-17T09:37:21.468Z,94340.63
2022-12-17T09:38:23.108Z,94335.25
2022-12-17T09:39:24.643Z,94341.72
2022-12-17T09:40:26.203Z,94344.47
2022-12-17T09:41:29.520Z,94345.38
2022-12-17T09:42:38.520Z,94346.09
2022-12-17T09:43:46.772Z,94338.94
2022-12-17T09:44:53.281Z,94341.31
2022-12-17T09:46:02.923Z,94348.00
2022-12-17T09:47:17.548Z,94353.09
2022-12-17T09:48:29.488Z,94345.53
2022-12-17T09:49:34.033Z,94351.94
2022-12-17T09:50:36.243Z,94348.75
2022-12-17T09:51:38.191Z,94355.13
2022-12-17T09:52:42.147Z,94355.56
2022-12-17T09:53:53.637Z,94347.41
2022-12-17T09:55:00.842Z,94354.38
2022-12-17T09:56:04.882Z,94359.25
2022-12-17T09:57:12.529Z,94354.09
2022-12-17T09:58:20.406Z,94350.69
2022-12-17T09:59:27.394Z,94349.88
2022-12-17T10:00:29.360Z,94351.59
2022-12-17T10:01:34.479Z,94357.22
2022-12-17T10:02:38.300Z,94351.41
2022-12-17T10:03:44.255Z,94355.19
2022-12-17T10:04:47.100Z,94356.88
2022-12-17T10:05:50.262Z,94353.28
2022-12-17T10:06:51.851Z,94357.69
2022-12-17T10:07:54.176Z,94357.69
2022-12-17T10:08:59.448Z,94351.88
2022-12-17T10:10:20.467Z,94353.00
2022-12-17T10:11:24.522Z,94349.84
2022-12-17T10:12:26.235Z,94347.38
2022-12-17T10:13:27.768Z,94340.47
2022-12-17T10:14:43.031Z,94349.47
2022-12-17T10:15:44.623Z,94347.66
2022-12-17T10:16:46.812Z,94350.56
2022-12-17T10:17:49.572Z,94354.75
2022-12-17T10:18:51.149Z,94355.16
2022-12-17T10:19:54.968Z,94350.31
2022-12-17T10:20:59.279Z,94346.03
2022-12-17T10:22:11.969Z,94344.66
2022-12-17T10:23:23.201Z,94347.28
2022-12-17T10:24:24.769Z,94339.53
2022-12-17T10:25:26.248Z,94344.97
2022-12-17T10:26:29.585Z,94346.44
2022-12-17T10:27:31.302Z,94338.28
2022-12-17T10:28:32.830Z,94347.50
2022-12-17T10:29:34.618Z,94343.50
2022-12-17T10:30:53.001Z,94344.28
2022-12-17T10:31:55.864Z,94342.16
2022-12-17T10:32:57.464Z,94343.47
2022-12-17T10:33:58.995Z,94343.41
2022-12-17T10:35:06.491Z,94347.25
2022-12-17T10:36:21.147Z,94346.63
2022-12-17T10:37:23.041Z,94346.72
2022-12-17T10:38:26.510Z,94346.69
2022-12-17T10:39:28.120Z,94345.41
2022-12-17T10:40:32.155Z,94349.22
2022-12-17T10:41:35.207Z,94352.25
2022-12-17T10:42:39.243Z,94357.59
2022-12-17T10:43:41.823Z,94355.16
2022-12-17T10:44:43.347Z,94353.41
2022-12-17T10:45:54.343Z,94351.28
2022-12-17T10:46:56.836Z,94345.34
2022-12-17T10:47:58.388Z,94353.06
2022-12-17T10:49:11.804Z,94354.16
2022-12-17T10:50:16.400Z,94348.44
2022-12-17T10:51:21.242Z,94355.50
2022-12-17T10:52:28.441Z,94357.53
2022-12-17T10:53:29.934Z,94354.63
2022-12-17T10:54:33.498Z,94347.44
2022-12-17T10:55:35.956Z,94353.06
2022-12-17T10:56:37.594Z,94354.91
2022-12-17T10:57:39.480Z,94354.91
2022-12-17T10:58:45.196Z,94351.78
2022-12-17T10:59:47.280Z,94351.66
2022-12-17T11:00:50.627Z,94357.41
2022-12-17T11:01:58.477Z,94357.09
2022-12-17T11:03:00.238Z,94362.56
2022-12-17T11:04:01.863Z,94360.56
2022-12-17T11:05:04.099Z,94353.16
2022-12-17T11:06:06.452Z,94349.88
2022-12-17T11:07:10.594Z,94359.31
2022-12-17T11:08:15.060Z,94359.19
2022-12-17T11:09:29.927Z,94367.44
2022-12-17T11:10:36.938Z,94365.25
2022-12-17T11:11:43.682Z,94356.91
2022-12-17T11:12:48.466Z,94356.66
2022-12-17T11:13:52.125Z,94361.63
2022-12-17T11:14:59.177Z,94358.22
2022-12-17T11:16:02.545Z,94360.47
2022-12-17T11:17:12.820Z,94357.78
2022-12-17T11:18:17.903Z,94349.47
2022-12-17T11:21:06.155Z,94356.63
2022-12-17T11:22:22.321Z,94365.94
2022-12-17T11:23:23.938Z,94354.94
2022-12-17T11:24:34.797Z,94356.03
2022-12-17T11:25:54.549Z,94358.09
2022-12-17T11:26:58.640Z,94357.56
2022-12-17T11:28:11.094Z,94353.91
2022-12-17T11:29:14.017Z,94356.84
2022-12-17T11:30:17.072Z,94349.22
2022-12-17T11:31:34.267Z,94358.06
2022-12-17T11:32:52.106Z,94356.13
2022-12-17T11:34:01.145Z,94357.38
2022-12-17T11:35:09.890Z,94362.19
2022-12-17T11:36:18.392Z,94361.75
2022-12-17T11:37:22.263Z,94361.94
2022-12-17T11:38:33.697Z,94366.44
2022-12-17T11:40:10.323Z,94364.03
2022-12-17T11:41:18.258Z,94363.28
2022-12-17T11:42:30.703Z,94368.00
2022-12-17T11:43:43.352Z,94364.31
2022-12-17T11:44:54.469Z,94364.69
2022-12-17T11:46:07.354Z,94363.13
2022-12-17T11:48:48.236Z,94362.94
2022-12-17T11:49:56.017Z,94365.50
2022-12-17T11:51:05.109Z,94365.97
2022-12-17T11:52:12.067Z,94363.84
2022-12-17T11:53:28.383Z,94360.38
2022-12-17T11:54:38.458Z,94370.09
2022-12-17T11:55:46.380Z,94365.41
2022-12-17T11:56:52.438Z,94364.47
2022-12-17T11:58:00.626Z,94362.69
2022-12-17T11:59:12.119Z,94373.59
2022-12-17T12:00:18.908Z,94370.75
2022-12-17T12:01:27.553Z,94370.59
2022-12-17T12:02:43.533Z,94375.47
2022-12-17T12:03:54.931Z,94366.75
2022-12-17T12:05:04.536Z,94376.88
2022-12-17T12:06:18.488Z,94370.75
2022-12-17T12:07:26.176Z,94378.00
2022-12-17T12:08:29.705Z,94374.59
2022-12-17T12:09:40.385Z,94383.50
2022-12-17T12:10:49.183Z,94378.38
2022-12-17T12:12:00.846Z,94374.34
2022-12-17T12:13:11.101Z,94376.41
2022-12-17T12:14:25.023Z,94376.16
2022-12-17T12:15:46.117Z,94381.03
2022-12-17T12:16:59.849Z,94380.75
2022-12-17T12:18:09.592Z,94382.59
2022-12-17T12:19:21.058Z,94378.69
2022-12-17T12:20:37.352Z,94385.59
2022-12-17T12:21:53.785Z,94381.81
2022-12-17T12:23:09.150Z,94383.59
2022-12-17T12:24:24.863Z,94384.06
2022-12-17T12:25:38.563Z,94380.19
2022-12-17T12:26:48.547Z,94383.38
2022-12-17T12:27:59.335Z,94382.19
2022-12-17T12:29:11.723Z,94375.00
2022-12-17T12:30:16.777Z,94372.84
2022-12-17T12:31:27.193Z,94376.22
2022-12-17T12:32:39.481Z,94375.28
2022-12-17T12:33:47.609Z,94373.06